sensor_id;sensor_type;location;lat;lon;timestamp;temperature;humidity
35445;DHT22;21562;49.476;6.086;2024-03-07T00:02:12;12.10;1.00
35445;DHT22;21562;49.476;6.086;2024-03-07T00:04:38;12.10;1.00
35445;DHT22;21562;49.476;6.086;2024-03-07T00:07:03;12.10;1.00
35445;DHT22;21562;49.476;6.086;2024-03-07T00:09:31;11.90;1.00
35445;DHT22;21562;49.476;6.086;2024-03-07T00:11:58;11.90;1.00
35445;DHT22;21562;49.476;6.086;2024-03-07T00:14:23;11.70;1.00
35445;DHT22;21562;49.476;6.086;2024-03-07T00:16:56;11.50;1.00
35445;DHT22;21562;49.476;6.086;2024-03-07T00:19:23;11.50;1.00
35445;DHT22;21562;49.476;6.086;2024-03-07T00:21:58;11.50;1.00
35445;DHT22;21562;49.476;6.086;2024-03-07T00:24:24;11.50;1.00
35445;DHT22;21562;49.476;6.086;2024-03-07T00:26:50;11.60;1.00
35445;DHT22;21562;49.476;6.086;2024-03-07T00:29:17;11.60;1.00
35445;DHT22;21562;49.476;6.086;2024-03-07T00:31:46;11.70;1.00
35445;DHT22;21562;49.476;6.086;2024-03-07T00:34:16;11.60;1.00
35445;DHT22;21562;49.476;6.086;2024-03-07T00:36:45;11.60;1.00
35445;DHT22;21562;49.476;6.086;2024-03-07T00:39:11;11.60;1.00
35445;DHT22;21562;49.476;6.086;2024-03-07T00:41:40;11.50;1.00
35445;DHT22;21562;49.476;6.086;2024-03-07T00:44:09;11.60;1.00
35445;DHT22;21562;49.476;6.086;2024-03-07T00:46:37;11.70;1.00
35445;DHT22;21562;49.476;6.086;2024-03-07T00:49:04;11.70;1.00
35445;DHT22;21562;49.476;6.086;2024-03-07T00:51:30;11.70;1.00
35445;DHT22;21562;49.476;6.086;2024-03-07T00:53:56;11.80;1.00
35445;DHT22;21562;49.476;6.086;2024-03-07T00:56:23;11.70;1.00
35445;DHT22;21562;49.476;6.086;2024-03-07T00:58:49;11.70;1.00
35445;DHT22;21562;49.476;6.086;2024-03-07T01:01:15;11.70;1.00
35445;DHT22;21562;49.476;6.086;2024-03-07T01:03:43;11.80;1.00
35445;DHT22;21562;49.476;6.086;2024-03-07T01:06:10;11.80;1.00
35445;DHT22;21562;49.476;6.086;2024-03-07T01:08:37;11.80;1.00
35445;DHT22;21562;49.476;6.086;2024-03-07T01:11:04;11.70;1.00
35445;DHT22;21562;49.476;6.086;2024-03-07T01:13:39;11.70;1.00
35445;DHT22;21562;49.476;6.086;2024-03-07T01:16:05;11.70;1.00
35445;DHT22;21562;49.476;6.086;2024-03-07T01:18:31;11.60;1.00
35445;DHT22;21562;49.476;6.086;2024-03-07T01:20:59;11.50;1.00
35445;DHT22;21562;49.476;6.086;2024-03-07T01:23:25;11.50;1.00
35445;DHT22;21562;49.476;6.086;2024-03-07T01:25:50;11.50;1.00
35445;DHT22;21562;49.476;6.086;2024-03-07T01:28:17;11.50;1.00
35445;DHT22;21562;49.476;6.086;2024-03-07T01:30:43;11.50;1.00
35445;DHT22;21562;49.476;6.086;2024-03-07T01:33:09;11.50;1.00
35445;DHT22;21562;49.476;6.086;2024-03-07T01:35:35;11.50;1.00
35445;DHT22;21562;49.476;6.086;2024-03-07T01:38:02;11.50;1.00
35445;DHT22;21562;49.476;6.086;2024-03-07T01:40:28;11.50;1.00
35445;DHT22;21562;49.476;6.086;2024-03-07T01:42:54;11.50;1.00
35445;DHT22;21562;49.476;6.086;2024-03-07T01:45:21;11.60;1.00
35445;DHT22;21562;49.476;6.086;2024-03-07T01:47:46;11.70;1.00
35445;DHT22;21562;49.476;6.086;2024-03-07T01:50:12;11.80;1.00
35445;DHT22;21562;49.476;6.086;2024-03-07T01:52:40;11.80;1.00
35445;DHT22;21562;49.476;6.086;2024-03-07T01:55:07;11.80;1.00
35445;DHT22;21562;49.476;6.086;2024-03-07T01:57:33;11.80;1.00
35445;DHT22;21562;49.476;6.086;2024-03-07T02:00:00;11.80;1.00
35445;DHT22;21562;49.476;6.086;2024-03-07T02:02:29;11.80;1.00
35445;DHT22;21562;49.476;6.086;2024-03-07T02:04:55;11.80;1.00
35445;DHT22;21562;49.476;6.086;2024-03-07T02:07:21;11.90;1.00
35445;DHT22;21562;49.476;6.086;2024-03-07T02:09:47;11.80;1.00
35445;DHT22;21562;49.476;6.086;2024-03-07T02:12:12;11.80;1.00
35445;DHT22;21562;49.476;6.086;2024-03-07T02:14:38;11.70;1.00
35445;DHT22;21562;49.476;6.086;2024-03-07T02:17:04;11.60;1.00
35445;DHT22;21562;49.476;6.086;2024-03-07T02:19:29;11.60;1.00
35445;DHT22;21562;49.476;6.086;2024-03-07T02:21:57;11.60;1.00
35445;DHT22;21562;49.476;6.086;2024-03-07T02:24:24;11.60;1.00
35445;DHT22;21562;49.476;6.086;2024-03-07T02:26:50;11.60;1.00
35445;DHT22;21562;49.476;6.086;2024-03-07T02:29:16;11.60;1.00
35445;DHT22;21562;49.476;6.086;2024-03-07T02:31:41;11.50;1.00
35445;DHT22;21562;49.476;6.086;2024-03-07T02:34:07;11.50;1.00
35445;DHT22;21562;49.476;6.086;2024-03-07T02:36:33;11.40;1.00
35445;DHT22;21562;49.476;6.086;2024-03-07T02:38:59;11.40;1.00
35445;DHT22;21562;49.476;6.086;2024-03-07T02:41:25;11.40;1.00
35445;DHT22;21562;49.476;6.086;2024-03-07T02:43:52;11.40;1.00
35445;DHT22;21562;49.476;6.086;2024-03-07T02:46:18;11.40;1.00
35445;DHT22;21562;49.476;6.086;2024-03-07T02:48:44;11.40;1.00
35445;DHT22;21562;49.476;6.086;2024-03-07T02:51:10;11.40;1.00
35445;DHT22;21562;49.476;6.086;2024-03-07T02:53:37;11.50;1.00
35445;DHT22;21562;49.476;6.086;2024-03-07T02:56:04;11.50;1.00
35445;DHT22;21562;49.476;6.086;2024-03-07T02:58:33;11.50;1.00
35445;DHT22;21562;49.476;6.086;2024-03-07T03:00:59;11.50;1.00
35445;DHT22;21562;49.476;6.086;2024-03-07T03:03:28;11.40;1.00
35445;DHT22;21562;49.476;6.086;2024-03-07T03:05:57;11.40;1.00
35445;DHT22;21562;49.476;6.086;2024-03-07T03:08:23;11.50;1.00
35445;DHT22;21562;49.476;6.086;2024-03-07T03:10:49;11.50;1.00
35445;DHT22;21562;49.476;6.086;2024-03-07T03:13:18;11.60;1.00
35445;DHT22;21562;49.476;6.086;2024-03-07T03:15:44;11.60;1.00
35445;DHT22;21562;49.476;6.086;2024-03-07T03:18:10;11.50;1.00
35445;DHT22;21562;49.476;6.086;2024-03-07T03:20:36;11.50;1.00
35445;DHT22;21562;49.476;6.086;2024-03-07T03:23:07;11.50;1.00
35445;DHT22;21562;49.476;6.086;2024-03-07T03:25:37;11.30;1.00
35445;DHT22;21562;49.476;6.086;2024-03-07T03:28:04;11.20;1.00
35445;DHT22;21562;49.476;6.086;2024-03-07T03:30:30;11.00;1.00
35445;DHT22;21562;49.476;6.086;2024-03-07T03:32:58;10.80;1.00
35445;DHT22;21562;49.476;6.086;2024-03-07T03:35:24;10.80;1.00
35445;DHT22;21562;49.476;6.086;2024-03-07T03:37:50;10.80;1.00
35445;DHT22;21562;49.476;6.086;2024-03-07T03:40:15;10.70;1.00
35445;DHT22;21562;49.476;6.086;2024-03-07T03:42:42;10.80;1.00
35445;DHT22;21562;49.476;6.086;2024-03-07T03:45:09;10.90;1.00
35445;DHT22;21562;49.476;6.086;2024-03-07T03:47:40;11.10;1.00
35445;DHT22;21562;49.476;6.086;2024-03-07T03:50:08;11.20;1.00
35445;DHT22;21562;49.476;6.086;2024-03-07T03:52:34;11.20;1.00
35445;DHT22;21562;49.476;6.086;2024-03-07T03:55:04;11.30;1.00
35445;DHT22;21562;49.476;6.086;2024-03-07T03:57:31;11.40;1.00
35445;DHT22;21562;49.476;6.086;2024-03-07T03:59:57;11.40;1.00
35445;DHT22;21562;49.476;6.086;2024-03-07T04:02:23;11.50;1.00
35445;DHT22;21562;49.476;6.086;2024-03-07T04:04:50;11.60;1.00
35445;DHT22;21562;49.476;6.086;2024-03-07T04:07:17;11.50;1.00
35445;DHT22;21562;49.476;6.086;2024-03-07T04:09:43;11.50;1.00
35445;DHT22;21562;49.476;6.086;2024-03-07T04:12:10;11.40;1.00
35445;DHT22;21562;49.476;6.086;2024-03-07T04:14:42;11.30;1.00
35445;DHT22;21562;49.476;6.086;2024-03-07T04:17:11;11.20;1.00
35445;DHT22;21562;49.476;6.086;2024-03-07T04:19:41;11.00;1.00
35445;DHT22;21562;49.476;6.086;2024-03-07T04:22:07;10.80;1.00
35445;DHT22;21562;49.476;6.086;2024-03-07T04:24:34;10.70;1.00
35445;DHT22;21562;49.476;6.086;2024-03-07T04:27:00;10.40;1.00
35445;DHT22;21562;49.476;6.086;2024-03-07T04:29:26;10.40;1.00
35445;DHT22;21562;49.476;6.086;2024-03-07T04:31:52;10.50;1.00
35445;DHT22;21562;49.476;6.086;2024-03-07T04:34:18;10.50;1.00
35445;DHT22;21562;49.476;6.086;2024-03-07T04:36:44;10.40;1.00
35445;DHT22;21562;49.476;6.086;2024-03-07T04:39:10;10.40;1.00
35445;DHT22;21562;49.476;6.086;2024-03-07T04:41:51;10.30;1.00
35445;DHT22;21562;49.476;6.086;2024-03-07T04:44:18;10.20;1.00
35445;DHT22;21562;49.476;6.086;2024-03-07T04:46:44;10.10;1.00
35445;DHT22;21562;49.476;6.086;2024-03-07T04:49:10;10.10;1.00
35445;DHT22;21562;49.476;6.086;2024-03-07T04:51:36;10.10;1.00
35445;DHT22;21562;49.476;6.086;2024-03-07T04:54:01;10.00;1.00
35445;DHT22;21562;49.476;6.086;2024-03-07T04:56:27;10.00;1.00
35445;DHT22;21562;49.476;6.086;2024-03-07T04:58:52;10.10;1.00
35445;DHT22;21562;49.476;6.086;2024-03-07T05:01:20;10.00;1.00
35445;DHT22;21562;49.476;6.086;2024-03-07T05:03:46;10.00;1.00
35445;DHT22;21562;49.476;6.086;2024-03-07T05:06:11;10.00;1.00
35445;DHT22;21562;49.476;6.086;2024-03-07T05:08:38;10.10;1.00
35445;DHT22;21562;49.476;6.086;2024-03-07T05:11:04;10.20;1.00
35445;DHT22;21562;49.476;6.086;2024-03-07T05:13:29;10.30;1.00
35445;DHT22;21562;49.476;6.086;2024-03-07T05:15:57;10.40;1.00
35445;DHT22;21562;49.476;6.086;2024-03-07T05:18:23;10.40;1.00
35445;DHT22;21562;49.476;6.086;2024-03-07T05:20:49;10.30;1.00
35445;DHT22;21562;49.476;6.086;2024-03-07T05:23:14;10.10;1.00
35445;DHT22;21562;49.476;6.086;2024-03-07T05:25:40;10.00;1.00
35445;DHT22;21562;49.476;6.086;2024-03-07T05:28:06;10.10;1.00
35445;DHT22;21562;49.476;6.086;2024-03-07T05:30:31;10.10;1.00
35445;DHT22;21562;49.476;6.086;2024-03-07T05:32:58;10.00;1.00
35445;DHT22;21562;49.476;6.086;2024-03-07T05:35:26;10.10;1.00
35445;DHT22;21562;49.476;6.086;2024-03-07T05:37:55;10.20;1.00
35445;DHT22;21562;49.476;6.086;2024-03-07T05:40:22;10.30;1.00
35445;DHT22;21562;49.476;6.086;2024-03-07T05:42:48;10.30;1.00
35445;DHT22;21562;49.476;6.086;2024-03-07T05:45:13;10.40;1.00
35445;DHT22;21562;49.476;6.086;2024-03-07T05:47:40;10.50;1.00
35445;DHT22;21562;49.476;6.086;2024-03-07T05:50:07;10.50;1.00
35445;DHT22;21562;49.476;6.086;2024-03-07T05:52:36;10.50;1.00
35445;DHT22;21562;49.476;6.086;2024-03-07T05:55:03;10.50;1.00
35445;DHT22;21562;49.476;6.086;2024-03-07T05:57:29;10.30;1.00
35445;DHT22;21562;49.476;6.086;2024-03-07T05:59:55;10.20;1.00
35445;DHT22;21562;49.476;6.086;2024-03-07T06:02:22;10.20;1.00
35445;DHT22;21562;49.476;6.086;2024-03-07T06:04:47;10.30;1.00
35445;DHT22;21562;49.476;6.086;2024-03-07T06:07:13;10.30;1.00
35445;DHT22;21562;49.476;6.086;2024-03-07T06:09:39;10.30;1.00
35445;DHT22;21562;49.476;6.086;2024-03-07T06:12:04;10.30;1.00
35445;DHT22;21562;49.476;6.086;2024-03-07T06:14:33;10.30;1.00
35445;DHT22;21562;49.476;6.086;2024-03-07T06:16:59;10.30;1.00
35445;DHT22;21562;49.476;6.086;2024-03-07T06:19:26;10.20;1.00
35445;DHT22;21562;49.476;6.086;2024-03-07T06:21:52;10.10;1.00
35445;DHT22;21562;49.476;6.086;2024-03-07T06:24:19;10.10;1.00
35445;DHT22;21562;49.476;6.086;2024-03-07T06:26:46;10.00;1.00
35445;DHT22;21562;49.476;6.086;2024-03-07T06:29:16;10.00;1.00
35445;DHT22;21562;49.476;6.086;2024-03-07T06:31:43;9.90;1.00
35445;DHT22;21562;49.476;6.086;2024-03-07T06:34:09;9.50;1.00
35445;DHT22;21562;49.476;6.086;2024-03-07T06:36:35;9.50;1.00
35445;DHT22;21562;49.476;6.086;2024-03-07T06:39:02;9.60;1.00
35445;DHT22;21562;49.476;6.086;2024-03-07T06:41:32;9.70;1.00
35445;DHT22;21562;49.476;6.086;2024-03-07T06:43:58;9.90;1.00
35445;DHT22;21562;49.476;6.086;2024-03-07T06:46:23;10.00;1.00
35445;DHT22;21562;49.476;6.086;2024-03-07T06:48:50;10.00;1.00
35445;DHT22;21562;49.476;6.086;2024-03-07T06:51:16;9.70;1.00
35445;DHT22;21562;49.476;6.086;2024-03-07T06:53:43;9.60;1.00
35445;DHT22;21562;49.476;6.086;2024-03-07T06:56:09;9.50;1.00
35445;DHT22;21562;49.476;6.086;2024-03-07T06:58:36;9.50;1.00
35445;DHT22;21562;49.476;6.086;2024-03-07T07:01:01;9.50;1.00
35445;DHT22;21562;49.476;6.086;2024-03-07T07:03:32;9.50;1.00
35445;DHT22;21562;49.476;6.086;2024-03-07T07:05:58;9.30;1.00
35445;DHT22;21562;49.476;6.086;2024-03-07T07:08:24;9.30;1.00
35445;DHT22;21562;49.476;6.086;2024-03-07T07:10:50;9.40;1.00
35445;DHT22;21562;49.476;6.086;2024-03-07T07:13:15;9.20;1.00
35445;DHT22;21562;49.476;6.086;2024-03-07T07:15:42;9.20;1.00
35445;DHT22;21562;49.476;6.086;2024-03-07T07:18:08;9.20;1.00
35445;DHT22;21562;49.476;6.086;2024-03-07T07:20:36;9.20;1.00
35445;DHT22;21562;49.476;6.086;2024-03-07T07:23:02;9.20;1.00
35445;DHT22;21562;49.476;6.086;2024-03-07T07:25:29;9.20;1.00
35445;DHT22;21562;49.476;6.086;2024-03-07T07:27:55;9.20;1.00
35445;DHT22;21562;49.476;6.086;2024-03-07T07:30:22;9.20;1.00
35445;DHT22;21562;49.476;6.086;2024-03-07T07:32:52;8.90;1.00
35445;DHT22;21562;49.476;6.086;2024-03-07T07:35:19;8.60;1.00
35445;DHT22;21562;49.476;6.086;2024-03-07T07:37:48;8.50;1.00
35445;DHT22;21562;49.476;6.086;2024-03-07T07:40:16;8.40;3.40
35445;DHT22;21562;49.476;6.086;2024-03-07T07:42:47;8.40;1.00
35445;DHT22;21562;49.476;6.086;2024-03-07T07:45:15;8.40;13.40
35445;DHT22;21562;49.476;6.086;2024-03-07T07:47:45;8.40;8.90
35445;DHT22;21562;49.476;6.086;2024-03-07T07:50:12;8.50;8.10
35445;DHT22;21562;49.476;6.086;2024-03-07T07:55:13;8.50;13.30
35445;DHT22;21562;49.476;6.086;2024-03-07T07:57:47;8.80;11.40
35445;DHT22;21562;49.476;6.086;2024-03-07T08:00:15;9.00;1.00
35445;DHT22;21562;49.476;6.086;2024-03-07T08:03:00;9.10;1.00
35445;DHT22;21562;49.476;6.086;2024-03-07T08:05:31;9.20;7.60
35445;DHT22;21562;49.476;6.086;2024-03-07T08:08:06;9.10;1.90
35445;DHT22;21562;49.476;6.086;2024-03-07T08:10:33;9.00;1.00
35445;DHT22;21562;49.476;6.086;2024-03-07T08:13:01;8.90;1.00
35445;DHT22;21562;49.476;6.086;2024-03-07T08:15:29;8.90;1.00
35445;DHT22;21562;49.476;6.086;2024-03-07T08:17:55;9.00;4.10
35445;DHT22;21562;49.476;6.086;2024-03-07T08:20:22;9.00;1.00
35445;DHT22;21562;49.476;6.086;2024-03-07T08:22:49;8.80;1.00
35445;DHT22;21562;49.476;6.086;2024-03-07T08:25:20;8.60;3.50
35445;DHT22;21562;49.476;6.086;2024-03-07T08:27:48;8.70;4.60
35445;DHT22;21562;49.476;6.086;2024-03-07T08:30:14;8.70;2.10
35445;DHT22;21562;49.476;6.086;2024-03-07T08:35:07;8.50;4.20
35445;DHT22;21562;49.476;6.086;2024-03-07T08:37:36;8.60;1.00
35445;DHT22;21562;49.476;6.086;2024-03-07T08:43:24;9.10;1.00
35445;DHT22;21562;49.476;6.086;2024-03-07T08:48:25;8.90;1.00
35445;DHT22;21562;49.476;6.086;2024-03-07T08:50:50;10.80;99.90
35445;DHT22;21562;49.476;6.086;2024-03-07T08:53:16;12.70;99.90
35445;DHT22;21562;49.476;6.086;2024-03-07T08:55:47;13.10;99.90
35445;DHT22;21562;49.476;6.086;2024-03-07T08:58:15;13.70;17.00
35445;DHT22;21562;49.476;6.086;2024-03-07T09:00:41;13.00;1.00
35445;DHT22;21562;49.476;6.086;2024-03-07T09:03:13;12.50;1.00
35445;DHT22;21562;49.476;6.086;2024-03-07T09:06:24;11.40;1.00
35445;DHT22;21562;49.476;6.086;2024-03-07T09:08:50;10.80;1.00
35445;DHT22;21562;49.476;6.086;2024-03-07T09:11:16;12.00;99.90
35445;DHT22;21562;49.476;6.086;2024-03-07T09:13:41;13.10;99.90
35445;DHT22;21562;49.476;6.086;2024-03-07T09:16:08;14.30;1.00
35445;DHT22;21562;49.476;6.086;2024-03-07T09:18:51;14.80;1.00
35445;DHT22;21562;49.476;6.086;2024-03-07T09:34:05;11.30;1.00
35445;DHT22;21562;49.476;6.086;2024-03-07T09:36:48;10.90;1.00
35445;DHT22;21562;49.476;6.086;2024-03-07T09:39:40;10.90;1.00
35445;DHT22;21562;49.476;6.086;2024-03-07T09:42:26;11.30;1.00
35445;DHT22;21562;49.476;6.086;2024-03-07T09:44:59;11.10;1.00
35445;DHT22;21562;49.476;6.086;2024-03-07T09:47:27;11.30;1.00
35445;DHT22;21562;49.476;6.086;2024-03-07T09:50:01;11.30;1.00
35445;DHT22;21562;49.476;6.086;2024-03-07T09:52:45;11.10;1.00
35445;DHT22;21562;49.476;6.086;2024-03-07T09:55:11;10.90;1.00
35445;DHT22;21562;49.476;6.086;2024-03-07T09:57:39;10.80;1.00
35445;DHT22;21562;49.476;6.086;2024-03-07T10:00:06;11.40;1.00
35445;DHT22;21562;49.476;6.086;2024-03-07T10:02:36;11.90;99.90
35445;DHT22;21562;49.476;6.086;2024-03-07T10:05:08;12.40;1.00
35445;DHT22;21562;49.476;6.086;2024-03-07T10:07:35;13.20;1.00
35445;DHT22;21562;49.476;6.086;2024-03-07T10:10:01;13.40;1.00
35445;DHT22;21562;49.476;6.086;2024-03-07T10:12:35;13.60;1.00
35445;DHT22;21562;49.476;6.086;2024-03-07T10:15:03;14.00;99.90
35445;DHT22;21562;49.476;6.086;2024-03-07T11:01:07;12.60;99.90
35445;DHT22;21562;49.476;6.086;2024-03-07T11:03:36;12.70;1.00
35445;DHT22;21562;49.476;6.086;2024-03-07T11:06:12;11.90;99.90
35445;DHT22;21562;49.476;6.086;2024-03-07T11:08:42;10.90;1.00
35445;DHT22;21562;49.476;6.086;2024-03-07T11:11:13;11.20;1.00
35445;DHT22;21562;49.476;6.086;2024-03-07T11:13:40;11.70;1.00
35445;DHT22;21562;49.476;6.086;2024-03-07T11:16:09;11.90;1.00
35445;DHT22;21562;49.476;6.086;2024-03-07T11:18:35;12.10;1.00
35445;DHT22;21562;49.476;6.086;2024-03-07T11:24:38;11.80;99.90
35445;DHT22;21562;49.476;6.086;2024-03-07T11:30:46;12.20;99.90
35445;DHT22;21562;49.476;6.086;2024-03-07T11:58:16;12.00;55.40
35445;DHT22;21562;49.476;6.086;2024-03-07T12:01:08;12.10;1.00
35445;DHT22;21562;49.476;6.086;2024-03-07T12:03:42;12.10;1.00
35445;DHT22;21562;49.476;6.086;2024-03-07T12:06:08;12.40;1.00
35445;DHT22;21562;49.476;6.086;2024-03-07T12:08:38;12.60;99.90
35445;DHT22;21562;49.476;6.086;2024-03-07T12:11:25;12.40;1.00
35445;DHT22;21562;49.476;6.086;2024-03-07T12:14:15;12.50;1.00
35445;DHT22;21562;49.476;6.086;2024-03-07T12:17:14;12.60;1.00
35445;DHT22;21562;49.476;6.086;2024-03-07T12:19:46;11.70;99.90
35445;DHT22;21562;49.476;6.086;2024-03-07T12:22:14;11.70;1.00
35445;DHT22;21562;49.476;6.086;2024-03-07T12:25:08;11.80;1.00
35445;DHT22;21562;49.476;6.086;2024-03-07T12:27:36;12.10;1.00
35445;DHT22;21562;49.476;6.086;2024-03-07T12:30:14;12.30;1.00
35445;DHT22;21562;49.476;6.086;2024-03-07T12:32:49;12.60;1.00
35445;DHT22;21562;49.476;6.086;2024-03-07T12:35:15;12.10;99.90
35445;DHT22;21562;49.476;6.086;2024-03-07T12:37:41;12.00;1.00
35445;DHT22;21562;49.476;6.086;2024-03-07T12:40:13;12.10;1.00
35445;DHT22;21562;49.476;6.086;2024-03-07T12:42:48;11.80;99.90
35445;DHT22;21562;49.476;6.086;2024-03-07T12:45:17;12.10;99.90
35445;DHT22;21562;49.476;6.086;2024-03-07T12:47:51;12.40;1.00
35445;DHT22;21562;49.476;6.086;2024-03-07T12:50:27;12.40;1.00
35445;DHT22;21562;49.476;6.086;2024-03-07T12:52:56;12.90;1.00
35445;DHT22;21562;49.476;6.086;2024-03-07T12:55:21;12.90;1.00
35445;DHT22;21562;49.476;6.086;2024-03-07T12:57:49;12.90;1.00
35445;DHT22;21562;49.476;6.086;2024-03-07T13:00:20;13.00;5.20
35445;DHT22;21562;49.476;6.086;2024-03-07T13:02:47;12.90;1.00
35445;DHT22;21562;49.476;6.086;2024-03-07T13:05:13;12.60;1.00
35445;DHT22;21562;49.476;6.086;2024-03-07T13:07:53;12.50;69.60
35445;DHT22;21562;49.476;6.086;2024-03-07T13:10:19;12.60;1.00
35445;DHT22;21562;49.476;6.086;2024-03-07T13:12:49;12.70;1.00
35445;DHT22;21562;49.476;6.086;2024-03-07T13:15:18;12.90;1.00
35445;DHT22;21562;49.476;6.086;2024-03-07T13:17:44;12.80;1.00
35445;DHT22;21562;49.476;6.086;2024-03-07T13:20:11;12.80;1.00
35445;DHT22;21562;49.476;6.086;2024-03-07T13:22:44;12.90;38.20
35445;DHT22;21562;49.476;6.086;2024-03-07T13:25:30;14.90;99.90
35445;DHT22;21562;49.476;6.086;2024-03-07T13:30:29;17.50;1.00
35445;DHT22;21562;49.476;6.086;2024-03-07T13:32:58;16.60;1.00
35445;DHT22;21562;49.476;6.086;2024-03-07T13:35:25;15.40;1.00
35445;DHT22;21562;49.476;6.086;2024-03-07T13:37:53;15.00;34.50
35445;DHT22;21562;49.476;6.086;2024-03-07T13:40:26;14.30;1.00
35445;DHT22;21562;49.476;6.086;2024-03-07T13:42:57;14.30;1.00
35445;DHT22;21562;49.476;6.086;2024-03-07T13:45:25;13.50;1.00
35445;DHT22;21562;49.476;6.086;2024-03-07T13:47:53;12.90;1.00
35445;DHT22;21562;49.476;6.086;2024-03-07T13:50:21;13.10;99.90
35445;DHT22;21562;49.476;6.086;2024-03-07T13:52:52;12.90;1.00
35445;DHT22;21562;49.476;6.086;2024-03-07T13:59:09;13.20;1.00
35445;DHT22;21562;49.476;6.086;2024-03-07T14:02:29;13.30;1.00
35445;DHT22;21562;49.476;6.086;2024-03-07T14:13:34;12.10;1.00
35445;DHT22;21562;49.476;6.086;2024-03-07T14:16:39;11.90;99.90
35445;DHT22;21562;49.476;6.086;2024-03-07T14:22:07;12.40;6.10
35445;DHT22;21562;49.476;6.086;2024-03-07T14:27:39;13.20;1.00
35445;DHT22;21562;49.476;6.086;2024-03-07T14:30:41;13.50;1.00
35445;DHT22;21562;49.476;6.086;2024-03-07T14:33:09;13.70;1.00
35445;DHT22;21562;49.476;6.086;2024-03-07T14:36:12;13.10;99.90
35445;DHT22;21562;49.476;6.086;2024-03-07T14:38:57;13.30;99.90
35445;DHT22;21562;49.476;6.086;2024-03-07T14:41:58;13.80;24.20
35445;DHT22;21562;49.476;6.086;2024-03-07T14:44:24;14.40;99.90
35445;DHT22;21562;49.476;6.086;2024-03-07T14:46:57;14.80;1.00
35445;DHT22;21562;49.476;6.086;2024-03-07T14:49:24;14.20;1.00
35445;DHT22;21562;49.476;6.086;2024-03-07T14:51:50;14.70;1.00
35445;DHT22;21562;49.476;6.086;2024-03-07T14:54:20;14.70;55.90
35445;DHT22;21562;49.476;6.086;2024-03-07T14:56:46;14.60;1.00
35445;DHT22;21562;49.476;6.086;2024-03-07T14:59:12;14.70;1.00
35445;DHT22;21562;49.476;6.086;2024-03-07T15:01:38;15.00;1.00
35445;DHT22;21562;49.476;6.086;2024-03-07T15:04:04;15.30;1.00
35445;DHT22;21562;49.476;6.086;2024-03-07T15:06:33;15.50;1.00
35445;DHT22;21562;49.476;6.086;2024-03-07T15:09:00;15.60;1.00
35445;DHT22;21562;49.476;6.086;2024-03-07T15:11:31;15.60;1.00
35445;DHT22;21562;49.476;6.086;2024-03-07T15:13:59;15.70;1.00
35445;DHT22;21562;49.476;6.086;2024-03-07T15:16:27;16.70;20.30
35445;DHT22;21562;49.476;6.086;2024-03-07T15:18:54;17.70;1.00
35445;DHT22;21562;49.476;6.086;2024-03-07T15:21:19;18.70;1.00
35445;DHT22;21562;49.476;6.086;2024-03-07T15:23:46;18.70;99.90
35445;DHT22;21562;49.476;6.086;2024-03-07T15:26:12;17.80;1.00
35445;DHT22;21562;49.476;6.086;2024-03-07T15:28:38;18.50;1.00
35445;DHT22;21562;49.476;6.086;2024-03-07T15:31:03;19.20;99.90
35445;DHT22;21562;49.476;6.086;2024-03-07T15:33:33;18.60;1.00
35445;DHT22;21562;49.476;6.086;2024-03-07T15:35:58;18.20;1.00
35445;DHT22;21562;49.476;6.086;2024-03-07T15:38:27;17.90;99.90
35445;DHT22;21562;49.476;6.086;2024-03-07T15:41:00;17.30;99.90
35445;DHT22;21562;49.476;6.086;2024-03-07T15:43:27;16.50;99.90
35445;DHT22;21562;49.476;6.086;2024-03-07T15:45:54;16.30;99.90
35445;DHT22;21562;49.476;6.086;2024-03-07T15:48:21;16.20;1.00
35445;DHT22;21562;49.476;6.086;2024-03-07T15:50:50;16.30;1.00
35445;DHT22;21562;49.476;6.086;2024-03-07T15:53:16;15.70;1.00
35445;DHT22;21562;49.476;6.086;2024-03-07T15:55:43;15.80;1.00
35445;DHT22;21562;49.476;6.086;2024-03-07T15:58:09;15.60;1.00
35445;DHT22;21562;49.476;6.086;2024-03-07T16:00:36;14.60;1.00
35445;DHT22;21562;49.476;6.086;2024-03-07T16:03:07;15.00;53.10
35445;DHT22;21562;49.476;6.086;2024-03-07T16:05:36;14.60;1.00
35445;DHT22;21562;49.476;6.086;2024-03-07T16:08:05;13.80;99.90
35445;DHT22;21562;49.476;6.086;2024-03-07T16:10:36;13.90;99.90
35445;DHT22;21562;49.476;6.086;2024-03-07T16:13:07;14.10;99.90
35445;DHT22;21562;49.476;6.086;2024-03-07T16:15:37;14.20;99.90
35445;DHT22;21562;49.476;6.086;2024-03-07T16:18:03;16.00;1.00
35445;DHT22;21562;49.476;6.086;2024-03-07T16:20:32;16.90;1.00
35445;DHT22;21562;49.476;6.086;2024-03-07T16:23:02;16.50;99.90
35445;DHT22;21562;49.476;6.086;2024-03-07T16:25:32;16.10;1.00
35445;DHT22;21562;49.476;6.086;2024-03-07T16:27:59;15.80;1.00
35445;DHT22;21562;49.476;6.086;2024-03-07T16:30:26;14.90;1.00
35445;DHT22;21562;49.476;6.086;2024-03-07T16:32:55;14.90;1.00
35445;DHT22;21562;49.476;6.086;2024-03-07T16:35:25;15.10;1.00
35445;DHT22;21562;49.476;6.086;2024-03-07T16:37:51;15.20;99.90
35445;DHT22;21562;49.476;6.086;2024-03-07T16:40:19;15.30;99.90
35445;DHT22;21562;49.476;6.086;2024-03-07T16:42:47;15.20;85.80
35445;DHT22;21562;49.476;6.086;2024-03-07T16:45:29;14.70;1.00
35445;DHT22;21562;49.476;6.086;2024-03-07T16:47:57;14.70;1.00
35445;DHT22;21562;49.476;6.086;2024-03-07T16:50:24;14.80;1.00
35445;DHT22;21562;49.476;6.086;2024-03-07T16:52:56;14.60;1.00
35445;DHT22;21562;49.476;6.086;2024-03-07T16:55:23;14.70;1.00
35445;DHT22;21562;49.476;6.086;2024-03-07T16:57:50;14.70;1.00
35445;DHT22;21562;49.476;6.086;2024-03-07T17:00:21;14.10;51.60
35445;DHT22;21562;49.476;6.086;2024-03-07T17:02:56;14.20;38.20
35445;DHT22;21562;49.476;6.086;2024-03-07T17:05:25;14.30;73.00
35445;DHT22;21562;49.476;6.086;2024-03-07T17:07:52;14.00;99.90
35445;DHT22;21562;49.476;6.086;2024-03-07T17:10:17;14.00;1.00
35445;DHT22;21562;49.476;6.086;2024-03-07T17:12:46;14.00;1.00
35445;DHT22;21562;49.476;6.086;2024-03-07T17:15:17;13.90;1.00
35445;DHT22;21562;49.476;6.086;2024-03-07T17:17:44;13.80;1.00
35445;DHT22;21562;49.476;6.086;2024-03-07T17:20:15;13.90;1.00
35445;DHT22;21562;49.476;6.086;2024-03-07T17:22:41;13.70;1.00
35445;DHT22;21562;49.476;6.086;2024-03-07T17:25:08;13.60;1.00
35445;DHT22;21562;49.476;6.086;2024-03-07T17:27:34;13.60;99.10
35445;DHT22;21562;49.476;6.086;2024-03-07T17:30:01;13.10;47.00
35445;DHT22;21562;49.476;6.086;2024-03-07T17:32:34;12.90;99.90
35445;DHT22;21562;49.476;6.086;2024-03-07T17:35:01;12.90;99.90
35445;DHT22;21562;49.476;6.086;2024-03-07T17:37:27;13.00;99.90
35445;DHT22;21562;49.476;6.086;2024-03-07T17:39:55;13.20;1.00
35445;DHT22;21562;49.476;6.086;2024-03-07T17:42:22;13.10;1.00
35445;DHT22;21562;49.476;6.086;2024-03-07T17:44:48;13.20;1.00
35445;DHT22;21562;49.476;6.086;2024-03-07T17:47:15;13.20;1.00
35445;DHT22;21562;49.476;6.086;2024-03-07T17:49:41;13.00;1.00
35445;DHT22;21562;49.476;6.086;2024-03-07T17:52:10;13.00;99.90
35445;DHT22;21562;49.476;6.086;2024-03-07T17:54:41;13.00;99.90
35445;DHT22;21562;49.476;6.086;2024-03-07T17:57:18;13.00;1.00